Time,TemperatureF,DewpointF,PressureIn,WindDirection,WindDirectionDegrees,WindSpeedMPH,WindSpeedGustMPH,Humidity,HourlyPrecipIn,Conditions,Clouds,dailyrainin,SoftwareType,DateUTC
2013-01-01 00:01:00,33.4,32.0,30.15,SW,222,0.0,1.0,93,0.00,,,0.00,weatherlink.com 1.10,2013-01-01 05:01:00,
2013-01-01 00:15:00,33.2,32.0,30.15,SW,229,0.0,0.0,94,0.00,,,0.00,weatherlink.com 1.10,2013-01-01 05:15:00,
2013-01-01 00:31:00,33.0,32.0,30.13,SW,232,0.0,0.0,94,0.00,,,0.00,weatherlink.com 1.10,2013-01-01 05:31:00,
2013-01-01 00:46:00,33.0,32.0,30.12,SW,225,0.0,0.0,95,0.00,,,0.00,weatherlink.com 1.10,2013-01-01 05:46:00,
2013-01-01 01:01:00,32.9,32.0,30.13,SW,236,0.0,0.0,95,0.00,,,0.00,weatherlink.com 1.10,2013-01-01 06:01:00,
2013-01-01 01:16:00,32.8,32.0,30.11,SW,236,0.0,0.0,95,0.00,,,0.00,weatherlink.com 1.10,2013-01-01 06:16:00,
2013-01-01 01:31:00,32.9,32.0,30.11,SW,236,0.0,0.0,96,0.00,,,0.00,weatherlink.com 1.10,2013-01-01 06:31:00,
2013-01-01 01:46:00,32.8,32.0,30.11,SW,236,0.0,0.0,96,0.00,,,0.00,weatherlink.com 1.10,2013-01-01 06:46:00,
2013-01-01 02:01:00,32.8,32.0,30.11,SW,236,0.0,0.0,96,0.00,,,0.00,weatherlink.com 1.10,2013-01-01 07:01:00,
2013-01-01 02:16:00,32.8,32.0,30.11,SW,236,0.0,0.0,96,0.00,,,0.00,weatherlink.com 1.10,2013-01-01 07:16:00,
2013-01-01 02:31:00,32.8,32.0,30.11,SW,236,0.0,0.0,96,0.00,,,0.00,weatherlink.com 1.10,2013-01-01 07:31:00,
2013-01-01 02:46:00,32.7,32.0,30.11,SW,236,0.0,0.0,96,0.00,,,0.00,weatherlink.com 1.10,2013-01-01 07:46:00,
2013-01-01 03:01:00,32.7,32.0,30.11,SW,236,0.0,0.0,96,0.00,,,0.00,weatherlink.com 1.10,2013-01-01 08:01:00,
2013-01-01 03:16:00,32.6,32.0,30.10,SW,236,0.0,0.0,96,0.00,,,0.00,weatherlink.com 1.10,2013-01-01 08:16:00,
2013-01-01 03:31:00,32.6,32.0,30.11,SW,236,0.0,0.0,96,0.00,,,0.00,weatherlink.com 1.10,2013-01-01 08:31:00,
2013-01-01 03:46:00,32.6,32.0,30.12,SW,232,0.0,0.0,96,0.00,,,0.00,weatherlink.com 1.10,2013-01-01 08:46:00,
2013-01-01 04:01:00,32.6,32.0,30.11,SW,232,0.0,0.0,97,0.00,,,0.00,weatherlink.com 1.10,2013-01-01 09:01:00,
2013-01-01 04:16:00,32.7,32.0,30.12,SW,236,0.0,0.0,97,0.00,,,0.00,weatherlink.com 1.10,2013-01-01 09:16:00,
2013-01-01 04:31:00,32.6,32.0,30.11,SW,236,0.0,0.0,97,0.00,,,0.00,weatherlink.com 1.10,2013-01-01 09:31:00,
2013-01-01 04:46:00,32.7,32.0,30.11,SW,236,0.0,0.0,97,0.00,,,0.00,weatherlink.com 1.10,2013-01-01 09:46:00,
2013-01-01 05:01:00,32.7,32.0,30.12,SW,236,0.0,0.0,97,0.00,,,0.00,weatherlink.com 1.10,2013-01-01 10:01:00,
2013-01-01 05:16:00,32.8,32.0,30.12,SW,236,0.0,0.0,97,0.00,,,0.00,weatherlink.com 1.10,2013-01-01 10:16:00,
2013-01-01 05:31:00,32.9,32.0,30.11,NW,314,0.0,0.0,97,0.00,,,0.00,weatherlink.com 1.10,2013-01-01 10:31:00,
2013-01-01 05:46:00,32.9,32.0,30.12,NW,314,0.0,0.0,97,0.00,,,0.00,weatherlink.com 1.10,2013-01-01 10:46:00,
2013-01-01 06:01:00,32.9,32.0,30.12,WSW,249,0.0,0.0,97,0.00,,,0.00,weatherlink.com 1.10,2013-01-01 11:01:00,
2013-01-01 06:16:00,32.9,32.0,30.11,WSW,252,0.0,0.0,97,0.00,,,0.00,weatherlink.com 1.10,2013-01-01 11:16:00,
2013-01-01 06:31:00,32.8,32.0,30.12,West,269,0.0,0.0,97,0.00,,,0.00,weatherlink.com 1.10,2013-01-01 11:31:00,
2013-01-01 06:46:00,32.8,32.0,30.12,West,267,0.0,0.0,97,0.00,,,0.00,weatherlink.com 1.10,2013-01-01 11:46:00,
2013-01-01 07:01:00,32.8,32.0,30.13,West,267,0.0,0.0,97,0.00,,,0.00,weatherlink.com 1.10,2013-01-01 12:01:00,
2013-01-01 07:16:00,32.7,32.0,30.13,WSW,239,0.0,0.0,97,0.00,,,0.00,weatherlink.com 1.10,2013-01-01 12:16:00,
2013-01-01 07:31:00,32.8,32.0,30.13,WSW,240,0.0,0.0,97,0.00,,,0.00,weatherlink.com 1.10,2013-01-01 12:31:00,
2013-01-01 07:46:00,32.8,32.0,30.14,NW,326,0.0,4.0,97,0.00,,,0.00,weatherlink.com 1.10,2013-01-01 12:46:00,
2013-01-01 08:01:00,32.9,32.0,30.15,SW,231,0.0,2.0,97,0.00,,,0.00,weatherlink.com 1.10,2013-01-01 13:01:00,
2013-01-01 08:16:00,32.9,32.0,30.14,West,262,0.0,1.0,97,0.00,,,0.00,weatherlink.com 1.10,2013-01-01 13:16:00,
2013-01-01 08:31:00,32.9,32.0,30.13,West,263,0.0,0.0,97,0.00,,,0.00,weatherlink.com 1.10,2013-01-01 13:31:00,
2013-01-01 08:46:00,32.9,32.0,30.14,WSW,253,0.0,2.0,97,0.00,,,0.00,weatherlink.com 1.10,2013-01-01 13:46:00,
2013-01-01 09:01:00,33.2,32.0,30.14,WNW,288,0.0,2.0,96,0.00,,,0.00,weatherlink.com 1.10,2013-01-01 14:01:00,
2013-01-01 09:16:00,33.3,32.0,30.13,West,267,0.0,3.0,96,0.00,,,0.00,weatherlink.com 1.10,2013-01-01 14:16:00,
2013-01-01 09:31:00,33.4,32.0,30.13,WNW,293,0.0,6.0,95,0.00,,,0.00,weatherlink.com 1.10,2013-01-01 14:31:00,
2013-01-01 09:46:00,33.5,32.0,30.13,North,351,0.0,4.0,95,0.00,,,0.00,weatherlink.com 1.10,2013-01-01 14:46:00,
2013-01-01 10:01:00,33.7,32.0,30.14,NNE,15,2.0,3.0,94,0.00,,,0.00,weatherlink.com 1.10,2013-01-01 15:01:00,
2013-01-01 10:16:00,33.8,32.0,30.15,NNW,341,0.0,4.0,93,0.00,,,0.00,weatherlink.com 1.10,2013-01-01 15:16:00,
2013-01-01 10:31:00,33.8,32.0,30.16,NNW,336,2.0,4.0,92,0.00,,,0.00,weatherlink.com 1.10,2013-01-01 15:31:00,
2013-01-01 10:46:00,33.8,32.0,30.15,NNW,348,2.0,8.0,92,0.00,,,0.00,weatherlink.com 1.10,2013-01-01 15:46:00,
2013-01-01 11:01:00,34.0,32.0,30.15,NNW,336,4.0,7.0,91,0.00,,,0.00,weatherlink.com 1.10,2013-01-01 16:01:00,
2013-01-01 11:16:00,34.2,32.0,30.16,NNW,332,1.0,4.0,91,0.00,,,0.00,weatherlink.com 1.10,2013-01-01 16:16:00,
2013-01-01 11:31:00,34.5,32.0,30.17,NNW,339,2.0,5.0,90,0.00,,,0.00,weatherlink.com 1.10,2013-01-01 16:31:00,
2013-01-01 11:46:00,34.7,32.0,30.16,NW,311,3.0,4.0,89,0.00,,,0.00,weatherlink.com 1.10,2013-01-01 16:46:00,
2013-01-01 12:02:00,33.7,31.0,30.16,NNE,12,6.0,9.0,90,0.00,,,0.00,weatherlink.com 1.10,2013-01-01 17:02:00,
2013-01-01 12:17:00,32.8,31.0,30.15,North,8,1.0,8.0,93,0.00,,,0.00,weatherlink.com 1.10,2013-01-01 17:17:00,
2013-01-01 12:32:00,32.2,30.0,30.14,NE,34,6.0,10.0,93,0.00,,,0.00,weatherlink.com 1.10,2013-01-01 17:32:00,
2013-01-01 12:47:00,32.1,30.0,30.13,NNE,25,4.0,7.0,92,0.00,,,0.00,weatherlink.com 1.10,2013-01-01 17:47:00,
2013-01-01 13:02:00,32.0,30.0,30.13,NNE,16,4.0,7.0,92,0.00,,,0.00,weatherlink.com 1.10,2013-01-01 18:02:00,
2013-01-01 13:17:00,32.2,30.0,30.11,NNE,26,2.0,7.0,91,0.00,,,0.00,weatherlink.com 1.10,2013-01-01 18:17:00,
2013-01-01 13:32:00,32.5,29.0,30.15,NNW,346,3.0,7.0,88,0.00,,,0.00,weatherlink.com 1.10,2013-01-01 18:32:00,
2013-01-01 13:47:00,32.8,29.0,30.13,North,350,4.0,6.0,87,0.00,,,0.00,weatherlink.com 1.10,2013-01-01 18:47:00,
2013-01-01 14:02:00,32.9,29.0,30.14,NNW,332,4.0,7.0,85,0.00,,,0.00,weatherlink.com 1.10,2013-01-01 19:02:00,
2013-01-01 14:17:00,32.9,28.0,30.14,NW,315,2.0,6.0,83,0.00,,,0.00,weatherlink.com 1.10,2013-01-01 19:17:00,
2013-01-01 14:32:00,32.6,28.0,30.14,NW,315,4.0,7.0,82,0.00,,,0.00,weatherlink.com 1.10,2013-01-01 19:32:00,
2013-01-01 14:47:00,32.6,27.0,30.12,NW,321,1.0,7.0,81,0.00,,,0.00,weatherlink.com 1.10,2013-01-01 19:47:00,
2013-01-01 15:01:00,32.6,27.0,30.14,NW,321,2.0,7.0,79,0.00,,,0.00,weatherlink.com 1.10,2013-01-01 20:01:00,
2013-01-01 15:16:00,32.4,27.0,30.14,North,352,2.0,6.0,79,0.00,,,0.00,weatherlink.com 1.10,2013-01-01 20:16:00,
2013-01-01 15:31:00,32.3,26.0,30.15,NNW,348,4.0,7.0,78,0.00,,,0.00,weatherlink.com 1.10,2013-01-01 20:31:00,
2013-01-01 15:46:00,32.2,26.0,30.15,NNE,12,1.0,6.0,78,0.00,,,0.00,weatherlink.com 1.10,2013-01-01 20:46:00,
2013-01-01 16:01:00,32.1,26.0,30.13,NNW,342,3.0,7.0,78,0.00,,,0.00,weatherlink.com 1.10,2013-01-01 21:01:00,
2013-01-01 16:16:00,32.0,26.0,30.14,North,6,4.0,6.0,78,0.00,,,0.00,weatherlink.com 1.10,2013-01-01 21:16:00,
2013-01-01 16:31:00,31.8,26.0,30.14,NNW,339,1.0,4.0,78,0.00,,,0.00,weatherlink.com 1.10,2013-01-01 21:31:00,
2013-01-01 16:46:00,31.6,25.0,30.14,WNW,291,2.0,5.0,78,0.00,,,0.00,weatherlink.com 1.10,2013-01-01 21:46:00,
2013-01-01 17:01:00,31.4,25.0,30.14,NW,325,4.0,6.0,78,0.00,,,0.00,weatherlink.com 1.10,2013-01-01 22:01:00,
2013-01-01 17:16:00,31.1,25.0,30.15,NW,321,3.0,8.0,78,0.00,,,0.00,weatherlink.com 1.10,2013-01-01 22:16:00,
2013-01-01 17:31:00,30.8,24.0,30.15,North,360,4.0,8.0,77,0.00,,,0.00,weatherlink.com 1.10,2013-01-01 22:31:00,
2013-01-01 17:46:00,30.5,24.0,30.15,North,4,5.0,8.0,78,0.00,,,0.00,weatherlink.com 1.10,2013-01-01 22:46:00,
2013-01-01 18:01:00,30.2,24.0,30.15,NNW,338,4.0,7.0,77,0.00,,,0.00,weatherlink.com 1.10,2013-01-01 23:01:00,
2013-01-01 18:16:00,30.0,24.0,30.15,North,358,5.0,6.0,77,0.00,,,0.00,weatherlink.com 1.10,2013-01-01 23:16:00,
2013-01-01 18:31:00,29.9,23.0,30.15,ENE,68,4.0,8.0,76,0.00,,,0.00,weatherlink.com 1.10,2013-01-01 23:31:00,
2013-01-01 18:46:00,29.7,23.0,30.16,NNW,336,3.0,6.0,75,0.00,,,0.00,weatherlink.com 1.10,2013-01-01 23:46:00,
2013-01-01 19:01:00,29.6,22.0,30.16,North,6,0.0,7.0,73,0.00,,,0.00,weatherlink.com 1.10,2013-01-02 00:01:00,
2013-01-01 19:16:00,29.6,22.0,30.16,NW,309,3.0,5.0,74,0.00,,,0.00,weatherlink.com 1.10,2013-01-02 00:16:00,
2013-01-01 19:31:00,29.5,23.0,30.15,NNW,344,2.0,6.0,75,0.00,,,0.00,weatherlink.com 1.10,2013-01-02 00:31:00,
2013-01-01 19:46:00,29.3,22.0,30.17,NW,323,2.0,4.0,75,0.00,,,0.00,weatherlink.com 1.10,2013-01-02 00:46:00,
2013-01-01 20:01:00,29.3,22.0,30.18,North,4,2.0,3.0,75,0.00,,,0.00,weatherlink.com 1.10,2013-01-02 01:01:00,
2013-01-01 20:16:00,29.2,22.0,30.17,NNW,337,2.0,5.0,74,0.00,,,0.00,weatherlink.com 1.10,2013-01-02 01:16:00,
2013-01-01 20:31:00,29.1,22.0,30.18,NNE,12,0.0,4.0,75,0.00,,,0.00,weatherlink.com 1.10,2013-01-02 01:31:00,
2013-01-01 20:46:00,29.0,22.0,30.18,NNE,15,3.0,4.0,75,0.00,,,0.00,weatherlink.com 1.10,2013-01-02 01:46:00,
2013-01-01 21:02:00,28.9,22.0,30.18,North,11,2.0,5.0,75,0.00,,,0.00,weatherlink.com 1.10,2013-01-02 02:02:00,
2013-01-01 21:17:00,28.8,22.0,30.20,NW,307,2.0,5.0,76,0.00,,,0.00,weatherlink.com 1.10,2013-01-02 02:17:00,
2013-01-01 21:32:00,28.7,22.0,30.20,NNW,337,1.0,6.0,75,0.00,,,0.00,weatherlink.com 1.10,2013-01-02 02:32:00,
2013-01-01 21:47:00,28.6,22.0,30.21,NNW,343,1.0,5.0,76,0.00,,,0.00,weatherlink.com 1.10,2013-01-02 02:47:00,
2013-01-01 22:02:00,28.4,21.0,30.20,NNW,339,4.0,5.0,75,0.00,,,0.00,weatherlink.com 1.10,2013-01-02 03:02:00,
2013-01-01 22:17:00,28.3,22.0,30.21,NW,316,4.0,6.0,76,0.00,,,0.00,weatherlink.com 1.10,2013-01-02 03:17:00,
2013-01-01 22:32:00,28.2,22.0,30.20,North,358,1.0,5.0,76,0.00,,,0.00,weatherlink.com 1.10,2013-01-02 03:32:00,
2013-01-01 22:47:00,28.1,22.0,30.19,NW,314,2.0,4.0,77,0.00,,,0.00,weatherlink.com 1.10,2013-01-02 03:47:00,
2013-01-01 23:02:00,27.7,22.0,30.20,ENE,58,1.0,3.0,78,0.00,,,0.00,weatherlink.com 1.10,2013-01-02 04:02:00,
2013-01-01 23:17:00,27.4,21.0,30.20,North,6,0.0,4.0,78,0.00,,,0.00,weatherlink.com 1.10,2013-01-02 04:17:00,
2013-01-01 23:32:00,27.1,22.0,30.22,NNW,347,1.0,2.0,80,0.00,,,0.00,weatherlink.com 1.10,2013-01-02 04:32:00,
2013-01-01 23:47:00,26.8,22.0,30.21,North,354,0.0,1.0,81,0.00,,,0.00,weatherlink.com 1.10,2013-01-02 04:47:00,